sensor_id;sensor_type;location;lat;lon;timestamp;temperature;humidity
21001;DHT22;10658;50.920;12.238;2022-11-09T00:03:59;11.20;99.90
21001;DHT22;10658;50.920;12.238;2022-11-09T00:08:04;11.30;99.90
21001;DHT22;10658;50.920;12.238;2022-11-09T00:12:06;11.30;99.90
21001;DHT22;10658;50.920;12.238;2022-11-09T00:16:09;11.40;99.90
21001;DHT22;10658;50.920;12.238;2022-11-09T00:20:10;11.40;99.90
21001;DHT22;10658;50.920;12.238;2022-11-09T00:24:12;11.30;99.90
21001;DHT22;10658;50.920;12.238;2022-11-09T00:28:13;11.30;99.90
21001;DHT22;10658;50.920;12.238;2022-11-09T00:32:14;11.40;99.90
21001;DHT22;10658;50.920;12.238;2022-11-09T00:36:18;11.30;99.90
21001;DHT22;10658;50.920;12.238;2022-11-09T00:40:19;11.30;99.90
21001;DHT22;10658;50.920;12.238;2022-11-09T00:44:20;11.20;99.90
21001;DHT22;10658;50.920;12.238;2022-11-09T00:48:24;11.20;99.90
21001;DHT22;10658;50.920;12.238;2022-11-09T00:52:25;11.10;99.90
21001;DHT22;10658;50.920;12.238;2022-11-09T00:56:26;11.10;99.90
21001;DHT22;10658;50.920;12.238;2022-11-09T01:00:27;11.10;99.90
21001;DHT22;10658;50.920;12.238;2022-11-09T01:04:28;11.10;99.90
21001;DHT22;10658;50.920;12.238;2022-11-09T01:08:31;11.10;99.90
21001;DHT22;10658;50.920;12.238;2022-11-09T01:12:32;11.10;99.90
21001;DHT22;10658;50.920;12.238;2022-11-09T01:16:33;11.10;99.90
21001;DHT22;10658;50.920;12.238;2022-11-09T01:20:42;11.30;99.90
21001;DHT22;10658;50.920;12.238;2022-11-09T01:24:44;11.30;99.90
21001;DHT22;10658;50.920;12.238;2022-11-09T01:28:45;11.30;99.90
21001;DHT22;10658;50.920;12.238;2022-11-09T01:32:45;11.40;99.90
21001;DHT22;10658;50.920;12.238;2022-11-09T01:36:49;11.30;99.90
21001;DHT22;10658;50.920;12.238;2022-11-09T01:40:51;11.50;99.90
21001;DHT22;10658;50.920;12.238;2022-11-09T01:45:18;11.50;99.90
21001;DHT22;10658;50.920;12.238;2022-11-09T01:49:48;11.50;99.90
21001;DHT22;10658;50.920;12.238;2022-11-09T01:53:56;11.40;99.90
21001;DHT22;10658;50.920;12.238;2022-11-09T01:58:11;11.40;99.90
21001;DHT22;10658;50.920;12.238;2022-11-09T02:02:15;11.30;99.90
21001;DHT22;10658;50.920;12.238;2022-11-09T02:06:17;11.30;99.90
21001;DHT22;10658;50.920;12.238;2022-11-09T02:10:28;11.30;99.90
21001;DHT22;10658;50.920;12.238;2022-11-09T02:14:32;11.20;99.90
21001;DHT22;10658;50.920;12.238;2022-11-09T02:18:35;11.20;99.90
21001;DHT22;10658;50.920;12.238;2022-11-09T02:22:39;11.20;99.90
21001;DHT22;10658;50.920;12.238;2022-11-09T02:26:47;11.30;99.90
21001;DHT22;10658;50.920;12.238;2022-11-09T02:30:53;11.30;99.90
21001;DHT22;10658;50.920;12.238;2022-11-09T02:34:55;11.30;99.90
21001;DHT22;10658;50.920;12.238;2022-11-09T02:38:57;11.40;99.90
21001;DHT22;10658;50.920;12.238;2022-11-09T02:43:02;11.40;99.90
21001;DHT22;10658;50.920;12.238;2022-11-09T02:47:03;11.40;99.90
21001;DHT22;10658;50.920;12.238;2022-11-09T02:51:05;11.30;99.90
21001;DHT22;10658;50.920;12.238;2022-11-09T02:55:06;11.30;99.90
21001;DHT22;10658;50.920;12.238;2022-11-09T02:59:07;11.30;99.90
21001;DHT22;10658;50.920;12.238;2022-11-09T03:03:09;11.30;99.90
21001;DHT22;10658;50.920;12.238;2022-11-09T03:07:11;11.30;99.90
21001;DHT22;10658;50.920;12.238;2022-11-09T03:11:13;11.30;99.90
21001;DHT22;10658;50.920;12.238;2022-11-09T03:15:14;11.20;99.90
21001;DHT22;10658;50.920;12.238;2022-11-09T03:19:19;11.10;99.90
21001;DHT22;10658;50.920;12.238;2022-11-09T03:23:23;11.00;99.90
21001;DHT22;10658;50.920;12.238;2022-11-09T03:27:24;11.00;99.90
21001;DHT22;10658;50.920;12.238;2022-11-09T03:31:26;10.90;99.90
21001;DHT22;10658;50.920;12.238;2022-11-09T03:35:29;10.90;99.90
21001;DHT22;10658;50.920;12.238;2022-11-09T03:39:31;10.90;99.90
21001;DHT22;10658;50.920;12.238;2022-11-09T03:43:33;10.90;99.90
21001;DHT22;10658;50.920;12.238;2022-11-09T03:47:35;10.80;99.90
21001;DHT22;10658;50.920;12.238;2022-11-09T03:51:36;10.80;99.90
21001;DHT22;10658;50.920;12.238;2022-11-09T03:55:37;10.80;99.90
21001;DHT22;10658;50.920;12.238;2022-11-09T03:59:38;10.80;99.90
21001;DHT22;10658;50.920;12.238;2022-11-09T04:03:40;10.80;99.90
21001;DHT22;10658;50.920;12.238;2022-11-09T04:07:55;10.80;99.90
21001;DHT22;10658;50.920;12.238;2022-11-09T04:12:06;11.00;99.90
21001;DHT22;10658;50.920;12.238;2022-11-09T04:16:07;11.20;99.90
21001;DHT22;10658;50.920;12.238;2022-11-09T04:24:15;11.30;99.90
21001;DHT22;10658;50.920;12.238;2022-11-09T04:28:16;11.40;99.90
21001;DHT22;10658;50.920;12.238;2022-11-09T04:32:17;11.50;99.90
21001;DHT22;10658;50.920;12.238;2022-11-09T04:36:19;11.60;99.90
21001;DHT22;10658;50.920;12.238;2022-11-09T04:40:22;11.50;99.90
21001;DHT22;10658;50.920;12.238;2022-11-09T04:44:24;11.50;99.90
21001;DHT22;10658;50.920;12.238;2022-11-09T04:48:25;11.50;99.90
21001;DHT22;10658;50.920;12.238;2022-11-09T04:52:26;11.60;99.90
21001;DHT22;10658;50.920;12.238;2022-11-09T04:56:27;11.50;99.90
21001;DHT22;10658;50.920;12.238;2022-11-09T05:00:29;11.50;99.90
21001;DHT22;10658;50.920;12.238;2022-11-09T05:04:30;11.50;99.90
21001;DHT22;10658;50.920;12.238;2022-11-09T05:08:31;11.50;99.90
21001;DHT22;10658;50.920;12.238;2022-11-09T05:13:08;11.40;99.90
21001;DHT22;10658;50.920;12.238;2022-11-09T05:17:09;11.40;99.90
21001;DHT22;10658;50.920;12.238;2022-11-09T05:21:11;11.30;99.90
21001;DHT22;10658;50.920;12.238;2022-11-09T05:25:14;11.20;99.90
21001;DHT22;10658;50.920;12.238;2022-11-09T05:29:15;11.20;99.90
21001;DHT22;10658;50.920;12.238;2022-11-09T05:33:16;11.10;99.90
21001;DHT22;10658;50.920;12.238;2022-11-09T05:37:18;11.10;99.90
21001;DHT22;10658;50.920;12.238;2022-11-09T05:41:22;11.10;99.90
21001;DHT22;10658;50.920;12.238;2022-11-09T05:45:23;11.00;99.90
21001;DHT22;10658;50.920;12.238;2022-11-09T05:49:26;11.00;99.90
21001;DHT22;10658;50.920;12.238;2022-11-09T05:53:27;11.00;99.90
21001;DHT22;10658;50.920;12.238;2022-11-09T05:57:28;10.90;99.90
21001;DHT22;10658;50.920;12.238;2022-11-09T06:01:33;10.90;99.90
21001;DHT22;10658;50.920;12.238;2022-11-09T06:05:37;10.80;99.90
21001;DHT22;10658;50.920;12.238;2022-11-09T06:09:39;10.80;99.90
21001;DHT22;10658;50.920;12.238;2022-11-09T06:17:52;10.80;99.90
21001;DHT22;10658;50.920;12.238;2022-11-09T06:21:53;10.80;99.90
21001;DHT22;10658;50.920;12.238;2022-11-09T06:25:59;10.80;99.90
21001;DHT22;10658;50.920;12.238;2022-11-09T06:30:00;10.90;99.90
21001;DHT22;10658;50.920;12.238;2022-11-09T06:34:01;11.00;99.90
21001;DHT22;10658;50.920;12.238;2022-11-09T06:38:03;11.00;99.90
21001;DHT22;10658;50.920;12.238;2022-11-09T06:42:05;11.00;99.90
21001;DHT22;10658;50.920;12.238;2022-11-09T06:46:07;11.10;99.90
21001;DHT22;10658;50.920;12.238;2022-11-09T06:50:11;11.10;99.90
21001;DHT22;10658;50.920;12.238;2022-11-09T06:54:12;11.00;99.90
21001;DHT22;10658;50.920;12.238;2022-11-09T06:58:14;11.10;99.90
21001;DHT22;10658;50.920;12.238;2022-11-09T07:15:10;11.20;99.90
21001;DHT22;10658;50.920;12.238;2022-11-09T07:19:17;11.20;99.90
21001;DHT22;10658;50.920;12.238;2022-11-09T07:23:41;11.20;99.90
21001;DHT22;10658;50.920;12.238;2022-11-09T07:27:53;11.20;99.90
21001;DHT22;10658;50.920;12.238;2022-11-09T07:32:00;11.20;99.90
21001;DHT22;10658;50.920;12.238;2022-11-09T07:36:27;11.10;99.90
21001;DHT22;10658;50.920;12.238;2022-11-09T07:40:31;11.10;99.90
21001;DHT22;10658;50.920;12.238;2022-11-09T07:50:14;11.00;99.90
21001;DHT22;10658;50.920;12.238;2022-11-09T07:58:55;10.90;99.90
21001;DHT22;10658;50.920;12.238;2022-11-09T08:03:30;10.80;99.90
21001;DHT22;10658;50.920;12.238;2022-11-09T08:07:39;10.90;99.90
21001;DHT22;10658;50.920;12.238;2022-11-09T08:11:50;10.90;99.90
21001;DHT22;10658;50.920;12.238;2022-11-09T08:20:49;10.90;99.90
21001;DHT22;10658;50.920;12.238;2022-11-09T08:25:02;10.90;99.90
21001;DHT22;10658;50.920;12.238;2022-11-09T08:29:08;10.90;99.90
21001;DHT22;10658;50.920;12.238;2022-11-09T08:33:39;10.90;99.90
21001;DHT22;10658;50.920;12.238;2022-11-09T08:37:58;11.00;99.90
21001;DHT22;10658;50.920;12.238;2022-11-09T08:42:36;11.00;99.90
21001;DHT22;10658;50.920;12.238;2022-11-09T08:47:29;11.00;99.90
21001;DHT22;10658;50.920;12.238;2022-11-09T08:51:52;11.20;99.90
21001;DHT22;10658;50.920;12.238;2022-11-09T08:56:27;11.30;99.90
21001;DHT22;10658;50.920;12.238;2022-11-09T09:01:06;11.30;99.90
21001;DHT22;10658;50.920;12.238;2022-11-09T09:05:33;11.30;99.90
21001;DHT22;10658;50.920;12.238;2022-11-09T09:09:54;11.40;99.90
21001;DHT22;10658;50.920;12.238;2022-11-09T09:14:40;11.40;99.90
21001;DHT22;10658;50.920;12.238;2022-11-09T09:24:07;11.70;99.90
21001;DHT22;10658;50.920;12.238;2022-11-09T09:28:08;11.70;99.90
21001;DHT22;10658;50.920;12.238;2022-11-09T09:32:10;11.70;99.90
21001;DHT22;10658;50.920;12.238;2022-11-09T09:36:17;11.90;99.90
21001;DHT22;10658;50.920;12.238;2022-11-09T09:40:24;12.00;99.90
21001;DHT22;10658;50.920;12.238;2022-11-09T09:44:46;12.00;99.90
21001;DHT22;10658;50.920;12.238;2022-11-09T09:49:02;12.00;99.90
21001;DHT22;10658;50.920;12.238;2022-11-09T09:53:32;12.00;99.90
21001;DHT22;10658;50.920;12.238;2022-11-09T09:57:36;12.20;99.90
21001;DHT22;10658;50.920;12.238;2022-11-09T10:05:54;12.50;99.90
21001;DHT22;10658;50.920;12.238;2022-11-09T10:27:35;13.80;99.90
21001;DHT22;10658;50.920;12.238;2022-11-09T10:31:38;13.70;99.90
21001;DHT22;10658;50.920;12.238;2022-11-09T10:35:45;13.70;99.90
21001;DHT22;10658;50.920;12.238;2022-11-09T10:39:59;13.60;99.90
21001;DHT22;10658;50.920;12.238;2022-11-09T10:44:21;13.60;99.90
21001;DHT22;10658;50.920;12.238;2022-11-09T10:48:40;13.50;99.90
21001;DHT22;10658;50.920;12.238;2022-11-09T10:53:21;13.40;99.90
21001;DHT22;10658;50.920;12.238;2022-11-09T10:57:51;13.30;99.90
21001;DHT22;10658;50.920;12.238;2022-11-09T11:06:44;13.30;99.90
21001;DHT22;10658;50.920;12.238;2022-11-09T11:15:40;13.30;99.90
21001;DHT22;10658;50.920;12.238;2022-11-09T11:20:25;13.10;99.90
21001;DHT22;10658;50.920;12.238;2022-11-09T11:33:37;13.30;99.90
21001;DHT22;10658;50.920;12.238;2022-11-09T11:47:24;13.50;99.90
21001;DHT22;10658;50.920;12.238;2022-11-09T11:51:55;13.50;99.90
21001;DHT22;10658;50.920;12.238;2022-11-09T11:56:35;13.50;99.90
21001;DHT22;10658;50.920;12.238;2022-11-09T12:23:43;14.50;99.90
21001;DHT22;10658;50.920;12.238;2022-11-09T12:37:13;15.00;99.90
21001;DHT22;10658;50.920;12.238;2022-11-09T12:41:36;14.90;99.90
21001;DHT22;10658;50.920;12.238;2022-11-09T12:45:57;15.00;99.90
21001;DHT22;10658;50.920;12.238;2022-11-09T12:50:20;14.90;99.90
21001;DHT22;10658;50.920;12.238;2022-11-09T12:54:44;14.90;99.90
21001;DHT22;10658;50.920;12.238;2022-11-09T13:03:55;14.80;99.90
21001;DHT22;10658;50.920;12.238;2022-11-09T13:08:24;14.80;99.90
21001;DHT22;10658;50.920;12.238;2022-11-09T13:12:45;14.60;99.90
21001;DHT22;10658;50.920;12.238;2022-11-09T13:21:43;14.50;99.90
21001;DHT22;10658;50.920;12.238;2022-11-09T13:26:03;14.40;99.90
21001;DHT22;10658;50.920;12.238;2022-11-09T13:39:36;14.20;99.90
21001;DHT22;10658;50.920;12.238;2022-11-09T13:53:00;14.00;99.90
21001;DHT22;10658;50.920;12.238;2022-11-09T13:57:22;13.90;99.90
21001;DHT22;10658;50.920;12.238;2022-11-09T14:01:49;13.90;99.90
21001;DHT22;10658;50.920;12.238;2022-11-09T14:06:11;13.90;99.90
21001;DHT22;10658;50.920;12.238;2022-11-09T14:10:58;14.00;99.90
21001;DHT22;10658;50.920;12.238;2022-11-09T14:20:10;14.00;99.90
21001;DHT22;10658;50.920;12.238;2022-11-09T14:24:36;13.90;99.90
21001;DHT22;10658;50.920;12.238;2022-11-09T14:28:56;14.00;99.90
21001;DHT22;10658;50.920;12.238;2022-11-09T14:33:27;13.90;99.90
21001;DHT22;10658;50.920;12.238;2022-11-09T14:37:51;13.80;99.90
21001;DHT22;10658;50.920;12.238;2022-11-09T14:42:18;13.80;99.90
21001;DHT22;10658;50.920;12.238;2022-11-09T14:46:38;13.70;99.90
21001;DHT22;10658;50.920;12.238;2022-11-09T14:51:03;13.60;99.90
21001;DHT22;10658;50.920;12.238;2022-11-09T14:55:24;13.50;99.90
21001;DHT22;10658;50.920;12.238;2022-11-09T14:59:45;13.40;99.90
21001;DHT22;10658;50.920;12.238;2022-11-09T15:04:14;13.20;99.90
21001;DHT22;10658;50.920;12.238;2022-11-09T15:08:57;13.20;99.90
21001;DHT22;10658;50.920;12.238;2022-11-09T15:13:36;13.00;99.90
21001;DHT22;10658;50.920;12.238;2022-11-09T15:17:55;12.90;99.90
21001;DHT22;10658;50.920;12.238;2022-11-09T15:26:59;12.50;99.90
21001;DHT22;10658;50.920;12.238;2022-11-09T15:31:22;12.40;99.90
21001;DHT22;10658;50.920;12.238;2022-11-09T15:36:05;12.30;99.90
21001;DHT22;10658;50.920;12.238;2022-11-09T15:40:26;12.20;99.90
21001;DHT22;10658;50.920;12.238;2022-11-09T15:44:53;12.20;99.90
21001;DHT22;10658;50.920;12.238;2022-11-09T15:49:16;12.10;99.90
21001;DHT22;10658;50.920;12.238;2022-11-09T15:53:36;12.00;99.90
21001;DHT22;10658;50.920;12.238;2022-11-09T15:57:56;12.00;99.90
21001;DHT22;10658;50.920;12.238;2022-11-09T16:02:15;12.00;99.90
21001;DHT22;10658;50.920;12.238;2022-11-09T16:06:40;12.10;99.90
21001;DHT22;10658;50.920;12.238;2022-11-09T16:11:03;12.10;99.90
21001;DHT22;10658;50.920;12.238;2022-11-09T16:15:25;12.30;99.90
21001;DHT22;10658;50.920;12.238;2022-11-09T16:19:44;12.20;99.90
21001;DHT22;10658;50.920;12.238;2022-11-09T16:24:05;12.20;99.90
21001;DHT22;10658;50.920;12.238;2022-11-09T16:28:24;12.30;99.90
21001;DHT22;10658;50.920;12.238;2022-11-09T16:32:45;12.30;99.90
21001;DHT22;10658;50.920;12.238;2022-11-09T16:37:04;12.30;99.90
21001;DHT22;10658;50.920;12.238;2022-11-09T16:41:24;12.30;99.90
21001;DHT22;10658;50.920;12.238;2022-11-09T16:45:48;12.30;99.90
21001;DHT22;10658;50.920;12.238;2022-11-09T16:50:09;12.40;99.90
21001;DHT22;10658;50.920;12.238;2022-11-09T16:54:29;12.40;99.90
21001;DHT22;10658;50.920;12.238;2022-11-09T16:58:49;12.40;99.90
21001;DHT22;10658;50.920;12.238;2022-11-09T17:03:08;12.30;99.90
21001;DHT22;10658;50.920;12.238;2022-11-09T17:07:28;12.30;99.90
21001;DHT22;10658;50.920;12.238;2022-11-09T17:11:49;12.30;99.90
21001;DHT22;10658;50.920;12.238;2022-11-09T17:16:10;12.30;99.90
21001;DHT22;10658;50.920;12.238;2022-11-09T17:20:30;12.40;99.90
21001;DHT22;10658;50.920;12.238;2022-11-09T17:24:50;12.40;99.90
21001;DHT22;10658;50.920;12.238;2022-11-09T17:29:09;12.40;99.90
21001;DHT22;10658;50.920;12.238;2022-11-09T17:33:31;12.30;99.90
21001;DHT22;10658;50.920;12.238;2022-11-09T17:37:50;12.30;99.90
21001;DHT22;10658;50.920;12.238;2022-11-09T17:42:10;12.30;99.90
21001;DHT22;10658;50.920;12.238;2022-11-09T17:46:29;12.30;99.90
21001;DHT22;10658;50.920;12.238;2022-11-09T17:50:48;12.30;99.90
21001;DHT22;10658;50.920;12.238;2022-11-09T17:55:09;12.20;99.90
21001;DHT22;10658;50.920;12.238;2022-11-09T17:59:28;12.30;99.90
21001;DHT22;10658;50.920;12.238;2022-11-09T18:03:48;12.30;99.90
21001;DHT22;10658;50.920;12.238;2022-11-09T18:08:08;12.40;99.90
21001;DHT22;10658;50.920;12.238;2022-11-09T18:12:39;12.30;99.90
21001;DHT22;10658;50.920;12.238;2022-11-09T18:16:59;12.40;99.90
21001;DHT22;10658;50.920;12.238;2022-11-09T18:21:21;12.30;99.90
21001;DHT22;10658;50.920;12.238;2022-11-09T18:25:55;12.40;99.90
21001;DHT22;10658;50.920;12.238;2022-11-09T18:30:16;12.30;99.90
21001;DHT22;10658;50.920;12.238;2022-11-09T18:34:35;12.30;99.90
21001;DHT22;10658;50.920;12.238;2022-11-09T18:38:55;12.30;99.90
21001;DHT22;10658;50.920;12.238;2022-11-09T18:43:14;12.30;99.90
21001;DHT22;10658;50.920;12.238;2022-11-09T18:47:35;12.30;99.90
21001;DHT22;10658;50.920;12.238;2022-11-09T18:51:54;12.30;99.90
21001;DHT22;10658;50.920;12.238;2022-11-09T18:56:24;12.50;99.90
21001;DHT22;10658;50.920;12.238;2022-11-09T19:00:44;12.50;99.90
21001;DHT22;10658;50.920;12.238;2022-11-09T19:05:04;12.40;99.90
21001;DHT22;10658;50.920;12.238;2022-11-09T19:09:25;12.40;99.90
21001;DHT22;10658;50.920;12.238;2022-11-09T19:13:48;12.50;99.90
21001;DHT22;10658;50.920;12.238;2022-11-09T19:18:08;12.50;99.90
21001;DHT22;10658;50.920;12.238;2022-11-09T19:22:28;12.70;99.90
21001;DHT22;10658;50.920;12.238;2022-11-09T19:26:48;12.70;99.90
21001;DHT22;10658;50.920;12.238;2022-11-09T19:31:17;12.70;99.90
21001;DHT22;10658;50.920;12.238;2022-11-09T19:35:37;12.70;99.90
21001;DHT22;10658;50.920;12.238;2022-11-09T19:39:56;12.80;99.90
21001;DHT22;10658;50.920;12.238;2022-11-09T19:44:16;12.80;99.90
21001;DHT22;10658;50.920;12.238;2022-11-09T19:48:36;12.80;99.90
21001;DHT22;10658;50.920;12.238;2022-11-09T19:53:01;12.80;99.90
21001;DHT22;10658;50.920;12.238;2022-11-09T19:57:21;12.90;99.90
21001;DHT22;10658;50.920;12.238;2022-11-09T20:01:41;12.90;99.90
21001;DHT22;10658;50.920;12.238;2022-11-09T20:06:06;12.80;99.90
21001;DHT22;10658;50.920;12.238;2022-11-09T20:10:25;12.70;99.90
21001;DHT22;10658;50.920;12.238;2022-11-09T20:14:44;12.70;99.90
21001;DHT22;10658;50.920;12.238;2022-11-09T20:19:06;12.70;99.90
21001;DHT22;10658;50.920;12.238;2022-11-09T20:23:27;12.70;99.90
21001;DHT22;10658;50.920;12.238;2022-11-09T20:27:47;12.60;99.90
21001;DHT22;10658;50.920;12.238;2022-11-09T20:32:07;12.60;99.90
21001;DHT22;10658;50.920;12.238;2022-11-09T20:36:27;12.60;99.90
21001;DHT22;10658;50.920;12.238;2022-11-09T20:40:53;12.40;99.90
21001;DHT22;10658;50.920;12.238;2022-11-09T20:45:14;12.40;99.90
21001;DHT22;10658;50.920;12.238;2022-11-09T20:49:34;12.40;99.90
21001;DHT22;10658;50.920;12.238;2022-11-09T20:53:53;12.40;99.90
21001;DHT22;10658;50.920;12.238;2022-11-09T20:58:13;12.30;99.90
21001;DHT22;10658;50.920;12.238;2022-11-09T21:02:33;12.30;99.90
21001;DHT22;10658;50.920;12.238;2022-11-09T21:06:53;12.30;99.90
21001;DHT22;10658;50.920;12.238;2022-11-09T21:11:12;12.30;99.90
21001;DHT22;10658;50.920;12.238;2022-11-09T21:15:31;12.30;99.90
21001;DHT22;10658;50.920;12.238;2022-11-09T21:19:50;12.20;99.90
21001;DHT22;10658;50.920;12.238;2022-11-09T21:24:10;12.10;99.90
21001;DHT22;10658;50.920;12.238;2022-11-09T21:28:49;12.10;99.90
21001;DHT22;10658;50.920;12.238;2022-11-09T21:33:27;12.00;99.90
21001;DHT22;10658;50.920;12.238;2022-11-09T21:37:47;12.00;99.90
21001;DHT22;10658;50.920;12.238;2022-11-09T21:42:07;11.90;99.90
21001;DHT22;10658;50.920;12.238;2022-11-09T21:46:30;11.80;99.90
21001;DHT22;10658;50.920;12.238;2022-11-09T21:50:50;11.70;99.90
21001;DHT22;10658;50.920;12.238;2022-11-09T21:55:10;11.60;99.90
21001;DHT22;10658;50.920;12.238;2022-11-09T21:59:30;11.50;99.90
21001;DHT22;10658;50.920;12.238;2022-11-09T22:03:50;11.50;99.90
21001;DHT22;10658;50.920;12.238;2022-11-09T22:08:10;11.40;99.90
21001;DHT22;10658;50.920;12.238;2022-11-09T22:12:31;11.40;99.90
21001;DHT22;10658;50.920;12.238;2022-11-09T22:17:10;11.40;99.90
21001;DHT22;10658;50.920;12.238;2022-11-09T22:21:30;11.30;99.90
21001;DHT22;10658;50.920;12.238;2022-11-09T22:25:51;11.20;99.90
21001;DHT22;10658;50.920;12.238;2022-11-09T22:30:10;11.20;99.90
21001;DHT22;10658;50.920;12.238;2022-11-09T22:34:31;11.30;99.90
21001;DHT22;10658;50.920;12.238;2022-11-09T22:38:50;11.30;99.90
21001;DHT22;10658;50.920;12.238;2022-11-09T22:43:11;11.30;99.90
21001;DHT22;10658;50.920;12.238;2022-11-09T22:47:30;11.10;99.90
21001;DHT22;10658;50.920;12.238;2022-11-09T22:51:51;11.00;99.90
21001;DHT22;10658;50.920;12.238;2022-11-09T22:56:11;10.90;99.90
21001;DHT22;10658;50.920;12.238;2022-11-09T23:00:31;10.90;99.90
21001;DHT22;10658;50.920;12.238;2022-11-09T23:04:50;10.80;99.90
21001;DHT22;10658;50.920;12.238;2022-11-09T23:09:09;10.70;99.90
21001;DHT22;10658;50.920;12.238;2022-11-09T23:13:29;10.50;99.90
21001;DHT22;10658;50.920;12.238;2022-11-09T23:17:54;10.50;99.90
21001;DHT22;10658;50.920;12.238;2022-11-09T23:22:32;10.60;99.90
21001;DHT22;10658;50.920;12.238;2022-11-09T23:26:53;10.60;99.90
21001;DHT22;10658;50.920;12.238;2022-11-09T23:31:15;10.60;99.90
21001;DHT22;10658;50.920;12.238;2022-11-09T23:35:36;10.40;99.90
21001;DHT22;10658;50.920;12.238;2022-11-09T23:39:56;10.40;99.90
21001;DHT22;10658;50.920;12.238;2022-11-09T23:44:16;10.50;99.90
21001;DHT22;10658;50.920;12.238;2022-11-09T23:48:37;10.40;99.90
21001;DHT22;10658;50.920;12.238;2022-11-09T23:52:59;10.30;99.90
21001;DHT22;10658;50.920;12.238;2022-11-09T23:57:19;10.30;99.90
